createdAt,value
2022-11-18T00:01:35.941Z,15.00
2022-11-18T00:04:43.190Z,15.10
2022-11-18T00:07:50.659Z,14.60
2022-11-18T00:10:57.349Z,14.80
2022-11-18T00:14:04.706Z,13.60
2022-11-18T00:17:11.969Z,14.30
2022-11-18T00:20:18.603Z,13.20
2022-11-18T00:23:26.091Z,13.50
2022-11-18T00:26:32.813Z,14.00
2022-11-18T00:29:40.279Z,13.10
2022-11-18T00:32:47.563Z,14.00
2022-11-18T00:35:54.272Z,14.60
2022-11-18T00:39:01.858Z,14.00
2022-11-18T00:42:09.229Z,14.10
2022-11-18T00:45:16.195Z,13.50
2022-11-18T00:48:23.214Z,13.40
2022-11-18T00:51:29.826Z,12.20
2022-11-18T00:54:37.066Z,13.20
2022-11-18T00:57:43.911Z,13.80
2022-11-18T01:00:50.965Z,13.30
2022-11-18T01:03:58.273Z,12.10
2022-11-18T01:07:05.316Z,12.50
2022-11-18T01:10:12.198Z,14.50
2022-11-18T01:13:19.524Z,13.40
2022-11-18T01:16:26.128Z,14.30
2022-11-18T01:19:33.339Z,13.80
2022-11-18T01:22:40.285Z,13.50
2022-11-18T01:25:46.868Z,13.80
2022-11-18T01:28:50.612Z,14.00
2022-11-18T01:35:02.060Z,14.10
2022-11-18T01:38:09.654Z,14.90
2022-11-18T01:41:16.354Z,14.00
2022-11-18T01:44:23.855Z,14.60
2022-11-18T01:47:31.396Z,13.90
2022-11-18T01:50:38.053Z,13.70
2022-11-18T01:53:45.494Z,13.40
2022-11-18T01:56:52.855Z,13.40
2022-11-18T01:59:59.580Z,14.00
2022-11-18T02:03:07.044Z,13.30
2022-11-18T02:06:14.452Z,12.40
2022-11-18T02:09:21.157Z,12.40
2022-11-18T02:12:28.696Z,13.30
2022-11-18T02:15:35.750Z,12.80
2022-11-18T02:18:42.669Z,11.80
2022-11-18T02:21:50.077Z,11.90
2022-11-18T02:24:57.060Z,12.20
2022-11-18T02:28:04.169Z,12.10
2022-11-18T02:31:11.188Z,12.40
2022-11-18T02:34:18.567Z,12.80
2022-11-18T02:37:25.444Z,13.90
2022-11-18T02:40:32.432Z,14.90
2022-11-18T02:43:40.051Z,14.40
2022-11-18T02:46:47.082Z,15.90
2022-11-18T02:49:54.368Z,16.60
2022-11-18T02:53:02.032Z,15.90
2022-11-18T02:56:08.831Z,17.40
2022-11-18T02:59:16.651Z,16.50
2022-11-18T03:02:24.304Z,16.20
2022-11-18T03:05:31.042Z,17.40
2022-11-18T03:08:38.567Z,17.70
2022-11-18T03:11:45.996Z,19.60
2022-11-18T03:14:52.736Z,18.00
2022-11-18T03:18:00.426Z,18.60
2022-11-18T03:21:07.433Z,18.70
2022-11-18T03:24:14.505Z,18.20
2022-11-18T03:27:21.986Z,18.70
2022-11-18T03:30:28.648Z,18.50
2022-11-18T03:33:36.058Z,18.70
2022-11-18T03:36:43.339Z,18.70
2022-11-18T03:39:50.079Z,19.00
2022-11-18T03:42:57.229Z,19.20
2022-11-18T03:46:04.388Z,19.00
2022-11-18T03:49:11.081Z,18.90
2022-11-18T03:52:18.183Z,19.50
2022-11-18T03:55:25.528Z,18.80
2022-11-18T03:58:32.623Z,19.40
2022-11-18T04:01:39.626Z,19.20
2022-11-18T04:04:47.054Z,21.40
2022-11-18T04:07:54.254Z,19.90
2022-11-18T04:11:01.204Z,21.10
2022-11-18T04:14:08.643Z,19.00
2022-11-18T04:17:15.734Z,19.50
2022-11-18T04:20:22.874Z,19.70
2022-11-18T04:23:30.465Z,19.80
2022-11-18T04:26:37.263Z,18.20
2022-11-18T04:29:44.765Z,19.60
2022-11-18T04:32:52.325Z,19.30
2022-11-18T04:35:59.176Z,20.10
2022-11-18T04:39:06.809Z,19.00
2022-11-18T04:42:14.108Z,20.80
2022-11-18T04:45:20.819Z,20.10
2022-11-18T04:48:28.305Z,21.20
2022-11-18T04:51:35.299Z,19.20
2022-11-18T04:54:41.983Z,18.00
2022-11-18T04:57:49.399Z,16.90
2022-11-18T05:00:56.227Z,17.80
2022-11-18T05:04:03.321Z,17.50
2022-11-18T05:07:10.873Z,16.50
2022-11-18T05:10:17.684Z,16.20
2022-11-18T05:13:25.130Z,16.10
2022-11-18T05:16:32.969Z,15.20
2022-11-18T05:19:39.792Z,16.50
2022-11-18T05:22:46.983Z,13.50
2022-11-18T05:25:58.275Z,15.40
2022-11-18T05:28:57.134Z,16.20
2022-11-18T05:32:04.544Z,14.80
2022-11-18T05:35:11.714Z,16.60
2022-11-18T05:38:19.112Z,16.50
2022-11-18T05:41:26.673Z,17.00
2022-11-18T05:44:33.867Z,14.70
2022-11-18T05:47:41.046Z,15.20
2022-11-18T05:50:48.208Z,16.00
2022-11-18T05:53:55.827Z,14.90
2022-11-18T05:57:02.828Z,15.80
2022-11-18T06:00:09.926Z,13.70
2022-11-18T06:03:17.521Z,16.00
2022-11-18T06:06:24.634Z,15.40
2022-11-18T06:09:31.913Z,16.30
2022-11-18T06:12:38.970Z,15.30
2022-11-18T06:15:46.499Z,16.80
2022-11-18T06:18:53.713Z,15.70
2022-11-18T06:22:00.751Z,15.40
2022-11-18T06:25:08.302Z,15.80
2022-11-18T06:28:15.426Z,15.00
2022-11-18T06:31:22.512Z,15.90
2022-11-18T06:34:29.615Z,15.60
2022-11-18T06:37:36.995Z,14.80
2022-11-18T06:40:44.222Z,15.50
2022-11-18T06:43:51.362Z,14.30
2022-11-18T06:46:58.906Z,14.90
2022-11-18T06:50:05.660Z,15.50
2022-11-18T06:53:13.053Z,15.10
2022-11-18T06:56:20.334Z,15.00
2022-11-18T06:59:27.155Z,15.90
2022-11-18T07:02:34.623Z,14.00
2022-11-18T07:05:41.406Z,15.30
2022-11-18T07:08:48.832Z,14.20
2022-11-18T07:11:56.366Z,15.20
2022-11-18T07:15:03.116Z,14.70
2022-11-18T07:18:10.467Z,15.40
2022-11-18T07:21:18.047Z,14.00
2022-11-18T07:24:24.727Z,13.60
2022-11-18T07:27:32.257Z,13.90
2022-11-18T07:30:39.490Z,14.50
2022-11-18T07:33:46.948Z,14.50
2022-11-18T07:36:54.647Z,14.90
2022-11-18T07:40:01.818Z,15.00
2022-11-18T07:43:09.199Z,16.80
2022-11-18T07:46:16.897Z,16.90
2022-11-18T07:49:24.382Z,18.00
2022-11-18T07:52:31.748Z,17.60
2022-11-18T07:55:39.171Z,15.90
2022-11-18T07:58:46.925Z,15.10
2022-11-18T08:01:54.377Z,17.30
2022-11-18T08:05:02.014Z,17.90
2022-11-18T08:08:09.364Z,18.80
2022-11-18T08:11:21.821Z,19.30
2022-11-18T08:14:19.394Z,19.50
2022-11-18T08:17:26.894Z,12.80
2022-11-18T08:20:34.785Z,17.80
2022-11-18T08:23:42.962Z,18.60
2022-11-18T08:26:50.405Z,18.10
2022-11-18T08:29:57.904Z,18.10
2022-11-18T08:33:05.746Z,18.80
2022-11-18T08:36:13.186Z,18.00
2022-11-18T08:39:20.562Z,17.40
2022-11-18T08:42:33.970Z,18.00
2022-11-18T08:45:30.644Z,17.30
2022-11-18T08:48:38.299Z,17.70
2022-11-18T08:51:45.457Z,18.10
2022-11-18T08:54:52.194Z,17.80
2022-11-18T08:57:59.799Z,16.40
2022-11-18T09:01:06.968Z,15.50
2022-11-18T09:04:14.171Z,14.20
2022-11-18T09:07:21.788Z,14.70
2022-11-18T09:10:28.680Z,16.00
2022-11-18T09:16:41.011Z,14.30
2022-11-18T09:19:48.463Z,13.80
2022-11-18T09:22:56.205Z,14.10
2022-11-18T09:26:03.431Z,14.20
2022-11-18T09:29:10.602Z,13.30
2022-11-18T09:32:18.273Z,14.40
2022-11-18T09:35:25.453Z,15.00
2022-11-18T09:38:32.658Z,14.00
2022-11-18T09:41:40.153Z,13.00
2022-11-18T09:44:47.355Z,15.80
2022-11-18T09:47:54.562Z,15.50
2022-11-18T09:51:02.034Z,15.80
2022-11-18T09:54:09.214Z,15.50
2022-11-18T09:57:16.406Z,15.20
2022-11-18T10:00:23.515Z,12.80
2022-11-18T10:03:31.106Z,15.10
2022-11-18T10:06:38.066Z,14.80
2022-11-18T10:09:45.137Z,15.50
2022-11-18T10:12:52.595Z,15.60
2022-11-18T10:15:59.298Z,15.30
2022-11-18T10:19:06.608Z,15.30
2022-11-18T10:22:20.969Z,14.90
2022-11-18T10:25:18.137Z,15.50
2022-11-18T10:28:25.800Z,15.90
2022-11-18T10:31:33.258Z,15.50
2022-11-18T10:34:40.090Z,15.50
2022-11-18T10:38:06.700Z,13.70
2022-11-18T10:40:52.021Z,13.80
2022-11-18T10:43:59.270Z,16.40
2022-11-18T10:47:06.846Z,18.00
2022-11-18T10:50:13.993Z,16.30
2022-11-18T10:53:21.282Z,18.60
2022-11-18T10:56:28.410Z,18.60
2022-11-18T10:59:36.270Z,19.00
2022-11-18T11:02:43.783Z,18.00
2022-11-18T11:05:51.165Z,17.70
2022-11-18T11:08:58.817Z,19.40
2022-11-18T11:12:06.334Z,19.50
2022-11-18T11:15:13.715Z,17.90
2022-11-18T11:18:21.473Z,17.80
2022-11-18T11:21:28.454Z,17.60
2022-11-18T11:24:36.185Z,18.30
2022-11-18T11:30:47.952Z,17.00
2022-11-18T11:33:55.414Z,17.50
2022-11-18T11:37:03.084Z,16.40
2022-11-18T11:40:09.926Z,16.60
2022-11-18T11:43:17.197Z,15.90
2022-11-18T11:46:24.429Z,16.90
2022-11-18T11:49:31.577Z,17.80
2022-11-18T11:52:39.166Z,17.30
2022-11-18T11:55:46.326Z,17.30
2022-11-18T11:58:53.508Z,16.60
2022-11-18T12:02:00.968Z,16.60
2022-11-18T12:05:08.238Z,13.30
2022-11-18T12:08:15.389Z,14.60
2022-11-18T12:11:22.460Z,14.10
2022-11-18T12:14:29.669Z,13.80
2022-11-18T12:17:36.909Z,13.20
2022-11-18T12:20:44.179Z,12.50
2022-11-18T12:23:51.631Z,12.10
2022-11-18T12:26:58.600Z,11.70
2022-11-18T12:30:05.870Z,12.90
2022-11-18T12:33:13.072Z,12.50
2022-11-18T12:36:20.152Z,13.50
2022-11-18T12:39:27.829Z,15.10
2022-11-18T12:42:35.020Z,14.70
2022-11-18T12:45:42.275Z,16.80
2022-11-18T12:48:50.133Z,17.50
2022-11-18T12:51:57.154Z,16.90
2022-11-18T12:55:04.978Z,17.00
2022-11-18T12:58:12.612Z,16.70
2022-11-18T13:01:19.708Z,16.90
2022-11-18T13:04:27.245Z,16.60
2022-11-18T13:07:35.213Z,16.80
2022-11-18T13:10:42.185Z,18.50
2022-11-18T13:13:49.935Z,16.30
2022-11-18T13:16:57.787Z,18.30
2022-11-18T13:20:04.695Z,18.60
2022-11-18T13:23:12.107Z,16.90
2022-11-18T13:26:19.277Z,19.40
2022-11-18T13:29:26.398Z,18.20
2022-11-18T13:32:33.758Z,17.50
2022-11-18T13:35:40.957Z,19.50
2022-11-18T13:38:48.189Z,15.50
2022-11-18T13:41:55.679Z,21.30
2022-11-18T13:45:02.765Z,21.20
2022-11-18T13:48:09.828Z,21.10
2022-11-18T13:51:16.991Z,20.80
2022-11-18T13:54:24.640Z,21.10
2022-11-18T13:57:31.691Z,23.50
2022-11-18T14:00:38.681Z,22.00
2022-11-18T14:03:46.092Z,22.90
2022-11-18T14:06:52.851Z,23.60
2022-11-18T14:10:00.089Z,25.10
2022-11-18T14:13:07.199Z,25.00
2022-11-18T14:16:14.494Z,24.60
2022-11-18T14:19:22.127Z,25.50
2022-11-18T14:22:29.314Z,25.90
2022-11-18T14:25:36.546Z,23.60
2022-11-18T14:28:44.164Z,23.90
2022-11-18T14:31:51.051Z,21.00
2022-11-18T14:34:58.514Z,26.30
2022-11-18T14:41:10.255Z,26.00
2022-11-18T14:44:17.826Z,28.00
2022-11-18T14:47:25.356Z,25.50
2022-11-18T14:50:32.046Z,25.70
2022-11-18T14:53:39.536Z,26.60
2022-11-18T14:56:46.498Z,25.60
2022-11-18T14:59:53.239Z,26.30
2022-11-18T15:03:00.802Z,25.10
2022-11-18T15:06:07.968Z,20.60
2022-11-18T15:09:15.199Z,25.50
2022-11-18T15:12:22.738Z,21.50
2022-11-18T15:15:29.870Z,24.10
2022-11-18T15:18:37.101Z,24.60
2022-11-18T15:21:44.343Z,22.90
2022-11-18T15:24:51.938Z,24.60
2022-11-18T15:27:59.009Z,24.00
2022-11-18T15:31:06.250Z,22.00
2022-11-18T15:34:13.420Z,21.30
2022-11-18T15:37:20.490Z,21.10
2022-11-18T15:40:27.512Z,20.50
2022-11-18T15:43:34.431Z,21.50
2022-11-18T15:46:41.450Z,22.30
2022-11-18T15:49:48.472Z,19.90
2022-11-18T15:52:55.562Z,21.10
2022-11-18T15:56:02.683Z,20.40
2022-11-18T15:59:10.111Z,19.10
2022-11-18T16:02:17.305Z,21.10
2022-11-18T16:05:24.357Z,21.20
2022-11-18T16:08:31.784Z,22.20
2022-11-18T16:11:38.916Z,31.90
2022-11-18T16:14:46.146Z,22.30
2022-11-18T16:17:53.591Z,21.80
2022-11-18T16:21:00.651Z,20.70
2022-11-18T16:24:07.615Z,20.90
2022-11-18T16:27:14.614Z,20.60
2022-11-18T16:30:21.306Z,16.70
2022-11-18T16:33:28.546Z,19.40
2022-11-18T16:36:35.612Z,18.40
2022-11-18T16:39:42.736Z,16.30
2022-11-18T16:42:50.308Z,16.60
2022-11-18T16:45:57.066Z,15.00
2022-11-18T16:49:04.586Z,13.30
2022-11-18T16:52:11.986Z,12.70
2022-11-18T16:55:18.737Z,13.50
2022-11-18T16:58:26.269Z,13.10
2022-11-18T17:01:33.648Z,13.00
2022-11-18T17:04:40.549Z,12.40
2022-11-18T17:07:48.156Z,11.70
2022-11-18T17:10:55.328Z,13.00
2022-11-18T17:14:03.220Z,12.00
2022-11-18T17:17:11.102Z,12.50
2022-11-18T17:20:18.381Z,13.10
2022-11-18T17:23:25.406Z,13.60
2022-11-18T17:26:32.877Z,12.70
2022-11-18T17:29:39.610Z,12.80
2022-11-18T17:32:46.973Z,12.20
2022-11-18T17:35:54.462Z,13.00
2022-11-18T17:39:01.499Z,12.40
2022-11-18T17:42:08.597Z,12.20
2022-11-18T17:45:15.290Z,13.00
2022-11-18T17:48:22.392Z,12.10
2022-11-18T17:51:29.233Z,13.40
2022-11-18T17:54:36.072Z,13.70
2022-11-18T17:57:43.351Z,13.20
2022-11-18T18:00:50.303Z,13.20
2022-11-18T18:03:58.013Z,14.00
2022-11-18T18:07:05.309Z,13.70
2022-11-18T18:10:12.584Z,13.70
2022-11-18T18:13:20.183Z,12.60
2022-11-18T18:16:26.987Z,13.20
2022-11-18T18:19:34.286Z,12.80
2022-11-18T18:22:41.485Z,13.90
2022-11-18T18:25:48.474Z,13.60
2022-11-18T18:28:55.924Z,13.10
2022-11-18T18:32:03.016Z,13.20
2022-11-18T18:35:10.146Z,13.20
2022-11-18T18:38:17.666Z,12.90
2022-11-18T18:41:24.474Z,12.90
2022-11-18T18:44:32.000Z,12.80
2022-11-18T18:47:39.586Z,12.00
2022-11-18T18:50:46.247Z,12.20
2022-11-18T18:53:53.866Z,12.30
2022-11-18T18:57:00.728Z,11.80
2022-11-18T19:00:07.567Z,11.70
2022-11-18T19:03:15.235Z,11.10
2022-11-18T19:06:49.131Z,11.60
2022-11-18T19:09:26.721Z,11.10
2022-11-18T19:12:34.091Z,12.00
2022-11-18T19:15:41.279Z,11.80
2022-11-18T19:18:48.069Z,11.80
2022-11-18T19:21:56.114Z,11.30
2022-11-18T19:25:03.829Z,12.10
2022-11-18T19:28:10.988Z,12.30
2022-11-18T19:31:18.328Z,11.80
2022-11-18T19:34:25.841Z,10.90
2022-11-18T19:37:33.137Z,12.40
2022-11-18T19:40:40.359Z,11.10
2022-11-18T19:43:47.758Z,10.40
2022-11-18T19:46:54.911Z,11.00
2022-11-18T19:50:01.719Z,10.90
2022-11-18T19:53:09.154Z,11.00
2022-11-18T19:56:16.032Z,10.70
2022-11-18T19:59:23.546Z,11.50
2022-11-18T20:02:30.353Z,10.90
2022-11-18T20:05:37.222Z,15.50
2022-11-18T20:08:44.883Z,14.30
2022-11-18T20:11:52.282Z,12.60
2022-11-18T20:14:59.124Z,12.80
2022-11-18T20:18:06.336Z,11.50
2022-11-18T20:21:13.136Z,11.70
2022-11-18T20:24:20.774Z,12.40
2022-11-18T20:27:29.763Z,11.90
2022-11-18T20:30:37.591Z,11.00
2022-11-18T20:33:46.077Z,10.50
2022-11-18T20:36:53.528Z,10.30
2022-11-18T20:40:02.285Z,11.60
2022-11-18T20:43:09.945Z,11.50
2022-11-18T20:46:20.310Z,9.80
2022-11-18T20:49:28.256Z,10.50
2022-11-18T20:52:35.498Z,11.00
2022-11-18T20:55:42.731Z,9.00
2022-11-18T20:58:50.107Z,9.10
2022-11-18T21:01:57.233Z,8.70
2022-11-18T21:05:04.456Z,8.90
2022-11-18T21:08:11.628Z,9.50
2022-11-18T21:11:18.436Z,8.70
2022-11-18T21:14:26.082Z,8.00
2022-11-18T21:17:33.266Z,8.40
2022-11-18T21:20:40.347Z,8.20
2022-11-18T21:23:47.849Z,8.40
2022-11-18T21:26:54.978Z,8.90
2022-11-18T21:30:02.141Z,8.80
2022-11-18T21:33:09.560Z,8.40
2022-11-18T21:36:16.269Z,8.30
2022-11-18T21:39:23.698Z,8.80
2022-11-18T21:42:31.203Z,7.80
2022-11-18T21:45:37.927Z,8.40
2022-11-18T21:48:45.371Z,8.30
2022-11-18T21:51:52.800Z,8.10
2022-11-18T21:54:59.711Z,8.30
2022-11-18T21:58:06.859Z,8.10
2022-11-18T22:01:13.979Z,8.80
2022-11-18T22:04:20.761Z,8.60
2022-11-18T22:07:28.354Z,8.60
2022-11-18T22:10:35.153Z,9.50
2022-11-18T22:13:42.331Z,8.60
2022-11-18T22:16:49.403Z,8.30
2022-11-18T22:19:56.893Z,7.90
2022-11-18T22:23:04.183Z,8.70
2022-11-18T22:26:11.405Z,9.10
2022-11-18T22:29:19.338Z,8.70
2022-11-18T22:32:26.502Z,8.40
2022-11-18T22:35:33.571Z,9.70
2022-11-18T22:38:40.963Z,9.40
2022-11-18T22:41:48.305Z,8.60
2022-11-18T22:44:55.402Z,9.20
2022-11-18T22:48:02.907Z,9.40
2022-11-18T22:51:09.634Z,9.30
2022-11-18T22:57:22.094Z,9.20
2022-11-18T23:00:28.812Z,9.30
2022-11-18T23:03:36.416Z,9.30
2022-11-18T23:06:43.537Z,9.70
2022-11-18T23:09:50.327Z,9.00
2022-11-18T23:12:57.720Z,9.20
2022-11-18T23:16:04.957Z,9.60
2022-11-18T23:19:12.246Z,9.50
2022-11-18T23:22:19.905Z,9.20
2022-11-18T23:25:27.097Z,9.00
2022-11-18T23:28:34.328Z,10.00
2022-11-18T23:31:41.470Z,9.60
2022-11-18T23:34:48.599Z,10.50
2022-11-18T23:37:55.778Z,9.50
2022-11-18T23:41:02.577Z,9.70
2022-11-18T23:44:09.627Z,9.80
2022-11-18T23:47:17.060Z,9.70
2022-11-18T23:50:24.208Z,10.10
2022-11-18T23:53:31.356Z,10.60
2022-11-18T23:56:38.641Z,10.80
2022-11-18T23:59:46.052Z,10.60
